sensor_id;sensor_type;location;lat;lon;timestamp;pressure;altitude;pressure_sealevel;temperature;humidity
22653;BME280;11493;43.344;26.226;2023-07-31T00:00:12;98692.78;;;22.93;70.12
22653;BME280;11493;43.344;26.226;2023-07-31T00:02:39;98704.09;;;22.83;70.57
22653;BME280;11493;43.344;26.226;2023-07-31T00:05:08;98703.31;;;22.79;70.43
22653;BME280;11493;43.344;26.226;2023-07-31T00:07:35;98701.72;;;22.74;70.37
22653;BME280;11493;43.344;26.226;2023-07-31T00:10:02;98710.97;;;22.68;70.67
22653;BME280;11493;43.344;26.226;2023-07-31T00:12:29;98695.41;;;22.59;71.16
22653;BME280;11493;43.344;26.226;2023-07-31T00:14:56;98707.34;;;22.71;71.02
22653;BME280;11493;43.344;26.226;2023-07-31T00:17:23;98716.19;;;22.69;71.00
22653;BME280;11493;43.344;26.226;2023-07-31T00:19:50;98694.59;;;22.59;70.35
22653;BME280;11493;43.344;26.226;2023-07-31T00:22:17;98706.59;;;22.63;70.33
22653;BME280;11493;43.344;26.226;2023-07-31T00:24:44;98712.19;;;22.67;70.44
22653;BME280;11493;43.344;26.226;2023-07-31T00:27:11;98701.78;;;22.63;70.85
22653;BME280;11493;43.344;26.226;2023-07-31T00:29:38;98695.38;;;22.63;71.09
22653;BME280;11493;43.344;26.226;2023-07-31T00:32:05;98694.59;;;22.59;71.49
22653;BME280;11493;43.344;26.226;2023-07-31T00:34:33;98698.66;;;22.54;71.99
22653;BME280;11493;43.344;26.226;2023-07-31T00:37:01;98707.84;;;22.58;72.38
22653;BME280;11493;43.344;26.226;2023-07-31T00:39:30;98716.19;;;22.66;73.43
22653;BME280;11493;43.344;26.226;2023-07-31T00:41:59;98697.81;;;22.61;73.85
22653;BME280;11493;43.344;26.226;2023-07-31T00:44:26;98716.13;;;22.76;74.96
22653;BME280;11493;43.344;26.226;2023-07-31T00:46:53;98712.09;;;22.84;75.89
22653;BME280;11493;43.344;26.226;2023-07-31T00:49:22;98699.28;;;22.83;76.00
22653;BME280;11493;43.344;26.226;2023-07-31T00:51:49;98689.19;;;22.93;74.48
22653;BME280;11493;43.344;26.226;2023-07-31T00:54:17;98707.97;;;23.00;75.12
22653;BME280;11493;43.344;26.226;2023-07-31T00:56:47;98695.25;;;22.84;75.82
22653;BME280;11493;43.344;26.226;2023-07-31T00:59:15;98716.09;;;22.87;77.31
22653;BME280;11493;43.344;26.226;2023-07-31T01:01:42;98698.47;;;22.86;77.61
22653;BME280;11493;43.344;26.226;2023-07-31T01:04:10;98707.69;;;22.83;78.12
22653;BME280;11493;43.344;26.226;2023-07-31T01:06:48;98706.06;;;22.86;79.06
22653;BME280;11493;43.344;26.226;2023-07-31T01:12:04;98707.56;;;23.01;78.26
22653;BME280;11493;43.344;26.226;2023-07-31T01:14:33;98692.31;;;23.02;78.54
22653;BME280;11493;43.344;26.226;2023-07-31T01:17:00;98680.78;;;22.93;78.47
22653;BME280;11493;43.344;26.226;2023-07-31T01:19:28;98691.00;;;23.14;78.55
22653;BME280;11493;43.344;26.226;2023-07-31T01:27:40;98698.53;;;23.24;77.20
22653;BME280;11493;43.344;26.226;2023-07-31T01:30:16;98694.50;;;23.25;77.62
22653;BME280;11493;43.344;26.226;2023-07-31T01:32:48;98683.34;;;23.18;78.34
22653;BME280;11493;43.344;26.226;2023-07-31T01:35:16;98695.34;;;23.22;79.43
22653;BME280;11493;43.344;26.226;2023-07-31T01:37:43;98694.88;;;23.27;79.61
22653;BME280;11493;43.344;26.226;2023-07-31T01:40:11;98671.72;;;23.16;79.94
22653;BME280;11493;43.344;26.226;2023-07-31T01:42:38;98686.91;;;23.22;80.98
22653;BME280;11493;43.344;26.226;2023-07-31T01:45:06;98691.69;;;23.25;81.29
22653;BME280;11493;43.344;26.226;2023-07-31T01:47:33;98701.31;;;23.24;81.50
22653;BME280;11493;43.344;26.226;2023-07-31T01:50:00;98691.69;;;23.25;81.76
22653;BME280;11493;43.344;26.226;2023-07-31T01:52:27;98689.28;;;23.27;81.99
22653;BME280;11493;43.344;26.226;2023-07-31T01:54:55;98696.47;;;23.28;82.68
22653;BME280;11493;43.344;26.226;2023-07-31T01:57:23;98671.03;;;23.05;83.67
22653;BME280;11493;43.344;26.226;2023-07-31T01:59:50;98692.63;;;23.11;84.09
22653;BME280;11493;43.344;26.226;2023-07-31T02:02:17;98689.00;;;23.11;84.43
22653;BME280;11493;43.344;26.226;2023-07-31T02:04:44;98691.00;;;23.14;84.40
22653;BME280;11493;43.344;26.226;2023-07-31T02:07:12;98693.41;;;23.12;85.17
22653;BME280;11493;43.344;26.226;2023-07-31T02:09:39;98681.38;;;23.15;85.10
22653;BME280;11493;43.344;26.226;2023-07-31T02:12:06;98677.38;;;23.12;85.53
22653;BME280;11493;43.344;26.226;2023-07-31T02:14:35;98679.34;;;23.15;86.13
22653;BME280;11493;43.344;26.226;2023-07-31T02:17:02;98687.69;;;23.26;85.44
22653;BME280;11493;43.344;26.226;2023-07-31T02:19:29;98680.53;;;23.18;86.01
22653;BME280;11493;43.344;26.226;2023-07-31T02:21:57;98671.34;;;23.14;86.29
22653;BME280;11493;43.344;26.226;2023-07-31T02:24:24;98682.97;;;23.16;86.71
22653;BME280;11493;43.344;26.226;2023-07-31T02:26:51;98688.03;;;23.32;86.30
22653;BME280;11493;43.344;26.226;2023-07-31T02:29:18;98690.41;;;23.33;86.63
22653;BME280;11493;43.344;26.226;2023-07-31T02:31:45;98682.81;;;23.30;86.79
22653;BME280;11493;43.344;26.226;2023-07-31T02:34:12;98693.25;;;23.30;86.98
22653;BME280;11493;43.344;26.226;2023-07-31T02:36:39;98688.44;;;23.30;86.79
22653;BME280;11493;43.344;26.226;2023-07-31T02:39:07;98682.81;;;23.30;86.65
22653;BME280;11493;43.344;26.226;2023-07-31T02:41:34;98688.47;;;23.26;86.93
22653;BME280;11493;43.344;26.226;2023-07-31T02:44:01;98695.69;;;23.27;87.30
22653;BME280;11493;43.344;26.226;2023-07-31T02:46:28;98686.94;;;23.18;87.51
22653;BME280;11493;43.344;26.226;2023-07-31T02:48:55;98690.94;;;23.21;88.83
22653;BME280;11493;43.344;26.226;2023-07-31T02:51:22;98685.81;;;23.09;90.13
22653;BME280;11493;43.344;26.226;2023-07-31T02:53:49;98691.81;;;23.11;90.70
22653;BME280;11493;43.344;26.226;2023-07-31T02:56:16;98696.66;;;23.07;91.54
22653;BME280;11493;43.344;26.226;2023-07-31T02:58:43;98668.03;;;22.81;92.97
22653;BME280;11493;43.344;26.226;2023-07-31T03:01:10;98695.66;;;22.86;94.92
22653;BME280;11493;43.344;26.226;2023-07-31T03:03:37;98697.69;;;22.82;95.67
22653;BME280;11493;43.344;26.226;2023-07-31T03:06:04;98699.31;;;22.80;96.88
22653;BME280;11493;43.344;26.226;2023-07-31T03:08:31;98688.94;;;22.70;98.14
22653;BME280;11493;43.344;26.226;2023-07-31T03:10:58;98695.72;;;22.72;99.92
22653;BME280;11493;43.344;26.226;2023-07-31T03:13:26;98700.56;;;22.68;100.00
22653;BME280;11493;43.344;26.226;2023-07-31T03:15:53;98698.22;;;22.56;100.00
22653;BME280;11493;43.344;26.226;2023-07-31T03:18:20;98693.91;;;22.44;100.00
22653;BME280;11493;43.344;26.226;2023-07-31T03:20:47;98691.53;;;22.39;100.00
22653;BME280;11493;43.344;26.226;2023-07-31T03:23:15;98701.97;;;22.32;100.00
22653;BME280;11493;43.344;26.226;2023-07-31T03:25:55;98700.44;;;22.23;100.00
22653;BME280;11493;43.344;26.226;2023-07-31T03:28:27;98700.06;;;22.18;100.00
22653;BME280;11493;43.344;26.226;2023-07-31T03:30:54;98707.72;;;22.10;100.00
22653;BME280;11493;43.344;26.226;2023-07-31T03:33:21;98693.31;;;22.08;100.00
22653;BME280;11493;43.344;26.226;2023-07-31T03:35:49;98712.50;;;22.13;100.00
22653;BME280;11493;43.344;26.226;2023-07-31T03:38:16;98712.09;;;22.11;100.00
22653;BME280;11493;43.344;26.226;2023-07-31T03:40:43;98699.34;;;21.96;100.00
22653;BME280;11493;43.344;26.226;2023-07-31T03:43:10;98718.94;;;22.07;100.00
22653;BME280;11493;43.344;26.226;2023-07-31T03:45:39;98719.69;;;22.14;100.00
22653;BME280;11493;43.344;26.226;2023-07-31T03:48:06;98721.72;;;22.10;100.00
22653;BME280;11493;43.344;26.226;2023-07-31T03:50:34;98700.94;;;21.93;100.00
22653;BME280;11493;43.344;26.226;2023-07-31T03:53:01;98705.78;;;21.86;100.00
22653;BME280;11493;43.344;26.226;2023-07-31T03:55:28;98694.22;;;21.70;100.00
22653;BME280;11493;43.344;26.226;2023-07-31T03:57:55;98711.41;;;21.75;100.00
22653;BME280;11493;43.344;26.226;2023-07-31T04:00:22;98711.41;;;21.68;100.00
22653;BME280;11493;43.344;26.226;2023-07-31T04:02:49;98725.84;;;21.63;100.00
22653;BME280;11493;43.344;26.226;2023-07-31T04:05:16;98711.09;;;21.52;100.00
22653;BME280;11493;43.344;26.226;2023-07-31T04:07:44;98726.69;;;21.49;100.00
22653;BME280;11493;43.344;26.226;2023-07-31T04:10:11;98735.88;;;21.46;100.00
22653;BME280;11493;43.344;26.226;2023-07-31T04:12:39;98733.50;;;21.45;100.00
22653;BME280;11493;43.344;26.226;2023-07-31T04:15:06;98739.09;;;21.41;100.00
22653;BME280;11493;43.344;26.226;2023-07-31T04:17:33;98716.31;;;21.36;100.00
22653;BME280;11493;43.344;26.226;2023-07-31T04:20:01;98721.50;;;21.37;100.00
22653;BME280;11493;43.344;26.226;2023-07-31T04:22:28;98724.31;;;21.37;100.00
22653;BME280;11493;43.344;26.226;2023-07-31T04:24:55;98733.09;;;21.36;100.00
22653;BME280;11493;43.344;26.226;2023-07-31T04:27:22;98731.91;;;21.40;100.00
22653;BME280;11493;43.344;26.226;2023-07-31T04:29:49;98746.69;;;21.44;100.00
22653;BME280;11493;43.344;26.226;2023-07-31T04:32:16;98730.69;;;21.41;100.00
22653;BME280;11493;43.344;26.226;2023-07-31T04:34:43;98727.09;;;21.44;100.00
22653;BME280;11493;43.344;26.226;2023-07-31T04:37:10;98743.47;;;21.53;100.00
22653;BME280;11493;43.344;26.226;2023-07-31T04:39:39;98748.63;;;21.58;100.00
22653;BME280;11493;43.344;26.226;2023-07-31T04:42:06;98753.03;;;21.62;100.00
22653;BME280;11493;43.344;26.226;2023-07-31T04:44:33;98757.41;;;21.67;100.00
22653;BME280;11493;43.344;26.226;2023-07-31T04:47:00;98765.81;;;21.71;100.00
22653;BME280;11493;43.344;26.226;2023-07-31T04:49:28;98756.22;;;21.72;100.00
22653;BME280;11493;43.344;26.226;2023-07-31T04:51:55;98759.00;;;21.82;100.00
22653;BME280;11493;43.344;26.226;2023-07-31T04:54:22;98764.59;;;21.86;100.00
22653;BME280;11493;43.344;26.226;2023-07-31T04:56:53;98760.56;;;21.94;100.00
22653;BME280;11493;43.344;26.226;2023-07-31T04:59:20;98762.97;;;21.92;100.00
22653;BME280;11493;43.344;26.226;2023-07-31T05:01:47;98758.56;;;21.91;100.00
22653;BME280;11493;43.344;26.226;2023-07-31T05:04:15;98756.56;;;21.95;100.00
22653;BME280;11493;43.344;26.226;2023-07-31T05:06:42;98768.16;;;21.97;100.00
22653;BME280;11493;43.344;26.226;2023-07-31T05:09:09;98765.38;;;22.04;100.00
22653;BME280;11493;43.344;26.226;2023-07-31T05:11:37;98765.38;;;22.04;100.00
22653;BME280;11493;43.344;26.226;2023-07-31T05:14:04;98758.56;;;22.05;100.00
22653;BME280;11493;43.344;26.226;2023-07-31T05:16:31;98754.16;;;22.04;100.00
22653;BME280;11493;43.344;26.226;2023-07-31T05:18:58;98766.13;;;22.15;100.00
22653;BME280;11493;43.344;26.226;2023-07-31T05:21:26;98779.72;;;22.24;100.00
22653;BME280;11493;43.344;26.226;2023-07-31T05:23:53;98782.06;;;22.29;100.00
22653;BME280;11493;43.344;26.226;2023-07-31T05:26:22;98785.25;;;22.35;100.00
22653;BME280;11493;43.344;26.226;2023-07-31T05:28:49;98782.03;;;22.40;100.00
22653;BME280;11493;43.344;26.226;2023-07-31T05:31:17;98777.59;;;22.46;100.00
22653;BME280;11493;43.344;26.226;2023-07-31T05:33:46;98784.34;;;22.59;100.00
22653;BME280;11493;43.344;26.226;2023-07-31T05:36:14;98788.69;;;22.67;100.00
22653;BME280;11493;43.344;26.226;2023-07-31T05:38:42;98784.66;;;22.75;100.00
22653;BME280;11493;43.344;26.226;2023-07-31T05:41:12;98772.22;;;22.80;100.00
22653;BME280;11493;43.344;26.226;2023-07-31T05:43:39;98776.16;;;22.93;100.00
22653;BME280;11493;43.344;26.226;2023-07-31T05:46:07;98782.53;;;23.01;100.00
22653;BME280;11493;43.344;26.226;2023-07-31T05:48:36;98772.50;;;23.00;100.00
22653;BME280;11493;43.344;26.226;2023-07-31T05:51:03;98765.59;;;23.11;100.00
22653;BME280;11493;43.344;26.226;2023-07-31T05:53:30;98777.91;;;23.24;100.00
22653;BME280;11493;43.344;26.226;2023-07-31T05:55:58;98787.06;;;23.32;100.00
22653;BME280;11493;43.344;26.226;2023-07-31T05:58:26;98784.25;;;23.32;100.00
22653;BME280;11493;43.344;26.226;2023-07-31T06:00:53;98781.78;;;23.41;100.00
22653;BME280;11493;43.344;26.226;2023-07-31T06:03:20;98782.13;;;23.47;100.00
22653;BME280;11493;43.344;26.226;2023-07-31T06:05:47;98777.31;;;23.47;100.00
22653;BME280;11493;43.344;26.226;2023-07-31T06:08:14;98772.88;;;23.53;100.00
22653;BME280;11493;43.344;26.226;2023-07-31T06:10:42;98778.06;;;23.58;100.00
22653;BME280;11493;43.344;26.226;2023-07-31T06:13:09;98782.78;;;23.69;100.00
22653;BME280;11493;43.344;26.226;2023-07-31T06:15:36;98775.06;;;23.76;100.00
22653;BME280;11493;43.344;26.226;2023-07-31T06:18:03;98786.19;;;23.87;100.00
22653;BME280;11493;43.344;26.226;2023-07-31T06:20:31;98770.53;;;23.86;100.00
22653;BME280;11493;43.344;26.226;2023-07-31T06:22:58;98792.09;;;23.96;100.00
22653;BME280;11493;43.344;26.226;2023-07-31T06:25:25;98790.81;;;24.04;100.00
22653;BME280;11493;43.344;26.226;2023-07-31T06:27:52;98766.50;;;23.87;100.00
22653;BME280;11493;43.344;26.226;2023-07-31T06:30:20;98792.00;;;24.07;100.00
22653;BME280;11493;43.344;26.226;2023-07-31T06:32:47;98792.06;;;24.00;100.00
22653;BME280;11493;43.344;26.226;2023-07-31T06:35:14;98793.19;;;24.06;100.00
22653;BME280;11493;43.344;26.226;2023-07-31T06:37:41;98800.53;;;23.96;100.00
22653;BME280;11493;43.344;26.226;2023-07-31T06:40:10;98789.72;;;23.95;100.00
22653;BME280;11493;43.344;26.226;2023-07-31T06:42:38;98790.53;;;23.91;100.00
22653;BME280;11493;43.344;26.226;2023-07-31T06:45:05;98786.97;;;23.87;100.00
22653;BME280;11493;43.344;26.226;2023-07-31T06:47:33;98798.59;;;23.89;100.00
22653;BME280;11493;43.344;26.226;2023-07-31T06:50:01;98803.03;;;23.87;100.00
22653;BME280;11493;43.344;26.226;2023-07-31T06:52:28;98780.72;;;23.73;100.00
22653;BME280;11493;43.344;26.226;2023-07-31T06:55:16;98786.06;;;23.60;100.00
22653;BME280;11493;43.344;26.226;2023-07-31T06:57:48;98805.25;;;23.69;100.00
22653;BME280;11493;43.344;26.226;2023-07-31T07:00:16;98815.28;;;23.70;100.00
22653;BME280;11493;43.344;26.226;2023-07-31T07:02:44;98805.28;;;23.65;100.00
22653;BME280;11493;43.344;26.226;2023-07-31T07:05:11;98801.38;;;23.48;100.00
22653;BME280;11493;43.344;26.226;2023-07-31T07:07:40;98818.22;;;23.48;100.00
22653;BME280;11493;43.344;26.226;2023-07-31T07:10:08;98814.22;;;23.49;100.00
22653;BME280;11493;43.344;26.226;2023-07-31T07:12:35;98806.56;;;23.57;100.00
22653;BME280;11493;43.344;26.226;2023-07-31T07:15:03;98805.72;;;23.60;100.00
22653;BME280;11493;43.344;26.226;2023-07-31T07:17:31;98806.00;;;23.73;100.00
22653;BME280;11493;43.344;26.226;2023-07-31T07:19:59;98804.78;;;23.74;100.00
22653;BME280;11493;43.344;26.226;2023-07-31T07:22:26;98810.78;;;23.76;100.00
22653;BME280;11493;43.344;26.226;2023-07-31T07:24:57;98820.47;;;23.71;100.00
22653;BME280;11493;43.344;26.226;2023-07-31T07:27:24;98821.25;;;23.72;100.00
22653;BME280;11493;43.344;26.226;2023-07-31T07:29:52;98816.84;;;23.71;100.00
22653;BME280;11493;43.344;26.226;2023-07-31T07:32:20;98813.22;;;23.74;100.00
22653;BME280;11493;43.344;26.226;2023-07-31T07:34:48;98821.22;;;23.75;100.00
22653;BME280;11493;43.344;26.226;2023-07-31T07:37:16;98817.28;;;23.69;100.00
22653;BME280;11493;43.344;26.226;2023-07-31T07:39:44;98819.97;;;23.80;100.00
22653;BME280;11493;43.344;26.226;2023-07-31T07:42:11;98808.78;;;23.76;100.00
22653;BME280;11493;43.344;26.226;2023-07-31T07:44:38;98834.31;;;23.89;100.00
22653;BME280;11493;43.344;26.226;2023-07-31T07:47:05;98821.09;;;23.86;100.00
22653;BME280;11493;43.344;26.226;2023-07-31T07:49:34;98831.13;;;23.87;100.00
22653;BME280;11493;43.344;26.226;2023-07-31T07:52:03;98814.44;;;23.73;100.00
22653;BME280;11493;43.344;26.226;2023-07-31T07:54:30;98818.78;;;23.77;100.00
22653;BME280;11493;43.344;26.226;2023-07-31T07:56:58;98830.69;;;23.92;100.00
22653;BME280;11493;43.344;26.226;2023-07-31T07:59:25;98841.09;;;23.95;100.00
22653;BME280;11493;43.344;26.226;2023-07-31T08:01:58;98841.09;;;23.95;100.00
22653;BME280;11493;43.344;26.226;2023-07-31T08:04:25;98837.94;;;23.89;100.00
22653;BME280;11493;43.344;26.226;2023-07-31T08:06:53;98839.97;;;23.85;100.00
22653;BME280;11493;43.344;26.226;2023-07-31T08:09:20;98836.38;;;23.85;100.00
22653;BME280;11493;43.344;26.226;2023-07-31T08:11:47;98837.56;;;23.84;100.00
22653;BME280;11493;43.344;26.226;2023-07-31T08:14:14;98849.25;;;23.79;100.00
22653;BME280;11493;43.344;26.226;2023-07-31T08:16:42;98851.28;;;23.78;100.00
22653;BME280;11493;43.344;26.226;2023-07-31T08:19:09;98835.34;;;23.68;100.00
22653;BME280;11493;43.344;26.226;2023-07-31T08:21:36;98861.66;;;23.85;100.00
22653;BME280;11493;43.344;26.226;2023-07-31T08:24:03;98830.91;;;23.71;100.00
22653;BME280;11493;43.344;26.226;2023-07-31T08:26:31;98855.16;;;23.91;100.00
22653;BME280;11493;43.344;26.226;2023-07-31T08:28:58;98862.72;;;23.98;100.00
22653;BME280;11493;43.344;26.226;2023-07-31T08:31:25;98862.66;;;24.05;100.00
22653;BME280;11493;43.344;26.226;2023-07-31T08:33:53;98866.25;;;24.09;100.00
22653;BME280;11493;43.344;26.226;2023-07-31T08:36:20;98858.94;;;24.15;100.00
22653;BME280;11493;43.344;26.226;2023-07-31T08:38:47;98853.72;;;24.17;100.00
22653;BME280;11493;43.344;26.226;2023-07-31T08:41:15;98856.44;;;24.24;100.00
22653;BME280;11493;43.344;26.226;2023-07-31T08:43:49;98847.16;;;24.31;100.00
22653;BME280;11493;43.344;26.226;2023-07-31T08:46:16;98858.59;;;24.51;100.00
22653;BME280;11493;43.344;26.226;2023-07-31T08:48:43;98867.97;;;24.71;100.00
22653;BME280;11493;43.344;26.226;2023-07-31T08:51:10;98861.75;;;24.87;100.00
22653;BME280;11493;43.344;26.226;2023-07-31T08:53:52;98854.03;;;24.91;100.00
22653;BME280;11493;43.344;26.226;2023-07-31T08:56:47;98862.75;;;25.04;100.00
22653;BME280;11493;43.344;26.226;2023-07-31T08:59:16;98857.22;;;24.97;100.00
22653;BME280;11493;43.344;26.226;2023-07-31T09:01:50;98859.47;;;25.09;100.00
22653;BME280;11493;43.344;26.226;2023-07-31T09:04:18;98867.75;;;25.19;100.00
22653;BME280;11493;43.344;26.226;2023-07-31T09:06:47;98866.13;;;25.22;100.00
22653;BME280;11493;43.344;26.226;2023-07-31T09:09:15;98863.31;;;25.22;100.00
22653;BME280;11493;43.344;26.226;2023-07-31T09:11:43;98870.00;;;25.28;100.00
22653;BME280;11493;43.344;26.226;2023-07-31T09:14:12;98854.34;;;25.27;100.00
22653;BME280;11493;43.344;26.226;2023-07-31T09:17:05;98868.78;;;25.29;100.00
22653;BME280;11493;43.344;26.226;2023-07-31T09:19:46;98871.13;;;25.34;100.00
22653;BME280;11493;43.344;26.226;2023-07-31T09:22:13;98854.25;;;25.34;100.00
22653;BME280;11493;43.344;26.226;2023-07-31T09:24:41;98855.34;;;25.40;100.00
22653;BME280;11493;43.344;26.226;2023-07-31T09:27:08;98863.31;;;25.45;100.00
22653;BME280;11493;43.344;26.226;2023-07-31T09:29:35;98868.41;;;25.54;100.00
22653;BME280;11493;43.344;26.226;2023-07-31T09:32:28;98863.94;;;25.57;100.00
22653;BME280;11493;43.344;26.226;2023-07-31T09:34:57;98863.81;;;25.67;100.00
22653;BME280;11493;43.344;26.226;2023-07-31T09:37:24;98846.56;;;25.62;100.00
22653;BME280;11493;43.344;26.226;2023-07-31T09:39:52;98858.91;;;25.71;100.00
22653;BME280;11493;43.344;26.226;2023-07-31T09:42:27;98858.38;;;25.80;100.00
22653;BME280;11493;43.344;26.226;2023-07-31T09:45:09;98858.84;;;25.75;100.00
22653;BME280;11493;43.344;26.226;2023-07-31T09:47:39;98856.28;;;25.84;100.00
22653;BME280;11493;43.344;26.226;2023-07-31T09:50:14;98861.56;;;25.82;100.00
22653;BME280;11493;43.344;26.226;2023-07-31T09:52:43;98859.53;;;25.82;100.00
22653;BME280;11493;43.344;26.226;2023-07-31T09:55:10;98854.69;;;25.83;100.00
22653;BME280;11493;43.344;26.226;2023-07-31T09:57:40;98861.81;;;25.91;100.00
22653;BME280;11493;43.344;26.226;2023-07-31T10:00:09;98863.44;;;25.89;100.00
22653;BME280;11493;43.344;26.226;2023-07-31T10:02:41;98847.91;;;26.00;100.00
22653;BME280;11493;43.344;26.226;2023-07-31T10:05:08;98848.81;;;26.17;99.53
22653;BME280;11493;43.344;26.226;2023-07-31T10:07:41;98854.63;;;26.30;97.55
22653;BME280;11493;43.344;26.226;2023-07-31T10:10:14;98840.53;;;26.30;96.23
22653;BME280;11493;43.344;26.226;2023-07-31T10:12:42;98846.84;;;26.57;94.69
22653;BME280;11493;43.344;26.226;2023-07-31T10:15:11;98837.75;;;26.69;97.44
22653;BME280;11493;43.344;26.226;2023-07-31T10:17:38;98847.66;;;26.94;95.99
22653;BME280;11493;43.344;26.226;2023-07-31T10:20:06;98844.28;;;27.02;91.23
22653;BME280;11493;43.344;26.226;2023-07-31T10:22:34;98845.44;;;27.05;87.28
22653;BME280;11493;43.344;26.226;2023-07-31T10:25:02;98835.03;;;27.02;86.04
22653;BME280;11493;43.344;26.226;2023-07-31T10:27:29;98833.63;;;27.10;88.58
22653;BME280;11493;43.344;26.226;2023-07-31T10:29:57;98834.38;;;27.30;89.06
22653;BME280;11493;43.344;26.226;2023-07-31T10:32:26;98837.91;;;27.34;88.14
22653;BME280;11493;43.344;26.226;2023-07-31T10:34:54;98836.31;;;27.49;88.74
22653;BME280;11493;43.344;26.226;2023-07-31T10:37:29;98830.31;;;27.47;86.63
22653;BME280;11493;43.344;26.226;2023-07-31T10:40:02;98838.09;;;27.60;87.79
22653;BME280;11493;43.344;26.226;2023-07-31T10:42:35;98833.06;;;27.67;87.29
22653;BME280;11493;43.344;26.226;2023-07-31T10:45:08;98823.25;;;27.72;87.41
22653;BME280;11493;43.344;26.226;2023-07-31T10:47:43;98829.88;;;27.81;84.47
22653;BME280;11493;43.344;26.226;2023-07-31T10:52:56;98814.53;;;27.66;82.66
22653;BME280;11493;43.344;26.226;2023-07-31T10:55:41;98815.22;;;27.87;82.59
22653;BME280;11493;43.344;26.226;2023-07-31T10:58:13;98802.22;;;27.89;82.52
22653;BME280;11493;43.344;26.226;2023-07-31T11:00:44;98796.31;;;27.67;82.43
22653;BME280;11493;43.344;26.226;2023-07-31T11:03:18;98794.38;;;27.64;83.96
22653;BME280;11493;43.344;26.226;2023-07-31T11:06:03;98789.25;;;27.43;83.80
22653;BME280;11493;43.344;26.226;2023-07-31T11:08:32;98797.97;;;27.48;82.29
22653;BME280;11493;43.344;26.226;2023-07-31T11:13:46;98790.31;;;27.65;81.96
22653;BME280;11493;43.344;26.226;2023-07-31T11:16:21;98780.50;;;27.70;80.96
22653;BME280;11493;43.344;26.226;2023-07-31T11:18:50;98776.50;;;27.84;81.24
22653;BME280;11493;43.344;26.226;2023-07-31T11:21:21;98776.97;;;27.82;81.58
22653;BME280;11493;43.344;26.226;2023-07-31T11:23:53;98790.75;;;27.80;82.90
22653;BME280;11493;43.344;26.226;2023-07-31T11:26:20;98782.78;;;27.59;78.77
22653;BME280;11493;43.344;26.226;2023-07-31T11:28:49;98772.56;;;27.65;78.44
22653;BME280;11493;43.344;26.226;2023-07-31T11:31:17;98776.63;;;27.64;79.00
22653;BME280;11493;43.344;26.226;2023-07-31T11:33:45;98769.38;;;27.63;78.79
22653;BME280;11493;43.344;26.226;2023-07-31T11:36:20;98764.44;;;27.67;78.28
22653;BME280;11493;43.344;26.226;2023-07-31T11:38:47;98759.28;;;27.78;78.25
22653;BME280;11493;43.344;26.226;2023-07-31T11:41:15;98753.81;;;27.87;78.04
22653;BME280;11493;43.344;26.226;2023-07-31T11:43:47;98747.94;;;27.94;76.47
22653;BME280;11493;43.344;26.226;2023-07-31T11:46:15;98752.88;;;28.06;75.73
22653;BME280;11493;43.344;26.226;2023-07-31T11:48:42;98750.31;;;28.25;75.74
22653;BME280;11493;43.344;26.226;2023-07-31T11:51:12;98754.28;;;28.27;74.76
22653;BME280;11493;43.344;26.226;2023-07-31T11:53:52;98755.44;;;28.30;74.35
22653;BME280;11493;43.344;26.226;2023-07-31T11:56:21;98748.75;;;28.24;74.39
22653;BME280;11493;43.344;26.226;2023-07-31T11:58:53;98743.44;;;27.97;75.17
22653;BME280;11493;43.344;26.226;2023-07-31T12:01:21;98748.84;;;27.91;74.23
22653;BME280;11493;43.344;26.226;2023-07-31T12:03:50;98738.88;;;27.87;73.88
22653;BME280;11493;43.344;26.226;2023-07-31T12:06:17;98737.44;;;27.95;74.64
22653;BME280;11493;43.344;26.226;2023-07-31T12:08:47;98740.25;;;27.95;75.50
22653;BME280;11493;43.344;26.226;2023-07-31T12:11:16;98729.75;;;27.95;73.91
22653;BME280;11493;43.344;26.226;2023-07-31T12:13:45;98728.00;;;27.85;75.01
22653;BME280;11493;43.344;26.226;2023-07-31T12:16:12;98725.91;;;27.73;75.10
22653;BME280;11493;43.344;26.226;2023-07-31T12:18:39;98724.72;;;27.87;74.76
22653;BME280;11493;43.344;26.226;2023-07-31T12:21:08;98712.69;;;27.99;75.35
22653;BME280;11493;43.344;26.226;2023-07-31T12:23:36;98701.91;;;27.94;74.29
22653;BME280;11493;43.344;26.226;2023-07-31T12:26:12;98711.78;;;28.02;73.38
22653;BME280;11493;43.344;26.226;2023-07-31T12:28:44;98717.63;;;28.24;72.86
22653;BME280;11493;43.344;26.226;2023-07-31T12:31:13;98714.47;;;28.34;72.17
22653;BME280;11493;43.344;26.226;2023-07-31T12:33:41;98712.13;;;28.45;70.37
22653;BME280;11493;43.344;26.226;2023-07-31T12:36:16;98721.44;;;28.59;70.83
22653;BME280;11493;43.344;26.226;2023-07-31T12:38:45;98729.59;;;28.69;69.24
22653;BME280;11493;43.344;26.226;2023-07-31T12:41:13;98734.81;;;28.71;69.11
22653;BME280;11493;43.344;26.226;2023-07-31T12:43:41;98723.13;;;28.56;67.54
22653;BME280;11493;43.344;26.226;2023-07-31T12:46:08;98715.31;;;28.73;67.58
22653;BME280;11493;43.344;26.226;2023-07-31T12:48:37;98727.78;;;28.75;74.19
22653;BME280;11493;43.344;26.226;2023-07-31T12:51:06;98722.34;;;28.81;77.80
22653;BME280;11493;43.344;26.226;2023-07-31T12:53:39;98724.16;;;28.75;77.55
22653;BME280;11493;43.344;26.226;2023-07-31T12:56:11;98709.22;;;28.74;79.04
22653;BME280;11493;43.344;26.226;2023-07-31T12:58:38;98715.19;;;28.51;79.72
22653;BME280;11493;43.344;26.226;2023-07-31T13:01:05;98716.31;;;28.41;82.29
22653;BME280;11493;43.344;26.226;2023-07-31T13:03:33;98717.00;;;28.45;82.00
22653;BME280;11493;43.344;26.226;2023-07-31T13:06:01;98710.03;;;28.21;82.73